createdAt,value
2023-04-10T00:02:08.895Z,99763.22
2023-04-10T00:04:35.682Z,99757.09
2023-04-10T00:07:02.452Z,99760.66
2023-04-10T00:09:29.719Z,99760.06
2023-04-10T00:11:56.750Z,99755.94
2023-04-10T00:14:24.544Z,99759.88
2023-04-10T00:16:51.404Z,99752.09
2023-04-10T00:19:18.171Z,99758.31
2023-04-10T00:21:44.783Z,99755.63
2023-04-10T00:24:11.435Z,99749.66
2023-04-10T00:26:38.087Z,99754.13
2023-04-10T00:29:04.902Z,99759.50
2023-04-10T00:31:32.156Z,99758.69
2023-04-10T00:33:58.761Z,99755.47
2023-04-10T00:36:26.930Z,99752.03
2023-04-10T00:38:53.840Z,99747.63
2023-04-10T00:41:20.584Z,99736.31
2023-04-10T00:43:47.264Z,99732.03
2023-04-10T00:46:14.033Z,99732.16
2023-04-10T00:48:41.386Z,99730.66
2023-04-10T00:51:08.225Z,99735.25
2023-04-10T00:53:34.860Z,99725.03
2023-04-10T00:56:02.313Z,99726.06
2023-04-10T00:58:28.944Z,99722.00
2023-04-10T01:00:56.381Z,99721.16
2023-04-10T01:03:24.655Z,99730.13
2023-04-10T01:06:07.260Z,99727.75
2023-04-10T01:08:42.944Z,99734.06
2023-04-10T01:11:39.752Z,99734.28
2023-04-10T01:14:22.067Z,99735.22
2023-04-10T01:17:02.329Z,99749.22
2023-04-10T01:20:07.218Z,99756.53
2023-04-10T01:22:52.229Z,99760.19
2023-04-10T01:25:43.764Z,99764.78
2023-04-10T01:28:22.170Z,99771.03
2023-04-10T01:30:52.531Z,99767.97
2023-04-10T01:33:22.814Z,99774.25
2023-04-10T01:35:52.524Z,99777.66
2023-04-10T01:38:21.542Z,99771.63
2023-04-10T01:40:52.637Z,99770.50
2023-04-10T01:43:22.322Z,99781.97
2023-04-10T01:45:51.332Z,99771.63
2023-04-10T01:48:18.936Z,99768.22
2023-04-10T01:50:47.234Z,99767.53
2023-04-10T01:53:14.496Z,99766.06
2023-04-10T01:55:42.358Z,99769.81
2023-04-10T01:58:09.168Z,99762.94
2023-04-10T02:00:41.319Z,99753.56
2023-04-10T02:03:08.690Z,99748.47
2023-04-10T02:06:03.895Z,99745.03
2023-04-10T02:08:37.848Z,99751.25
2023-04-10T02:11:16.232Z,99743.69
2023-04-10T02:13:43.343Z,99742.66
2023-04-10T02:16:13.966Z,99749.53
2023-04-10T02:18:42.671Z,99752.31
2023-04-10T02:21:09.519Z,99759.38
2023-04-10T02:23:37.107Z,99754.25
2023-04-10T02:26:08.599Z,99742.94
2023-04-10T02:28:38.156Z,99746.19
2023-04-10T02:31:04.985Z,99752.28
2023-04-10T02:33:31.764Z,99751.19
2023-04-10T02:35:58.366Z,99756.53
2023-04-10T02:38:25.049Z,99745.97
2023-04-10T02:40:51.713Z,99753.81
2023-04-10T02:43:18.899Z,99745.97
2023-04-10T02:45:45.569Z,99753.97
2023-04-10T02:48:12.805Z,99750.75
2023-04-10T02:50:39.792Z,99747.31
2023-04-10T02:53:06.464Z,99749.34
2023-04-10T02:55:33.135Z,99753.84
2023-04-10T02:57:59.730Z,99748.56
2023-04-10T03:00:26.800Z,99735.50
2023-04-10T03:02:53.976Z,99739.91
2023-04-10T03:05:20.871Z,99747.06
2023-04-10T03:07:47.483Z,99738.44
2023-04-10T03:10:14.216Z,99743.88
2023-04-10T03:12:40.861Z,99733.53
2023-04-10T03:15:08.076Z,99736.16
2023-04-10T03:17:35.116Z,99734.50
2023-04-10T03:20:01.695Z,99730.97
2023-04-10T03:22:30.448Z,99735.47
2023-04-10T03:24:57.727Z,99736.38
2023-04-10T03:27:24.374Z,99739.94
2023-04-10T03:29:51.007Z,99739.13
2023-04-10T03:32:17.643Z,99727.78
2023-04-10T03:34:44.209Z,99729.69
2023-04-10T03:37:11.030Z,99716.81
2023-04-10T03:39:37.676Z,99718.59
2023-04-10T03:42:04.328Z,99710.06
2023-04-10T03:44:31.111Z,99715.41
2023-04-10T03:46:57.748Z,99724.25
2023-04-10T03:49:24.414Z,99734.66
2023-04-10T03:51:51.463Z,99724.25
2023-04-10T03:54:18.090Z,99726.88
2023-04-10T03:56:44.776Z,99732.00
2023-04-10T03:59:11.362Z,99728.66
2023-04-10T04:01:38.317Z,99734.91
2023-04-10T04:04:06.143Z,99739.41
2023-04-10T04:06:32.817Z,99737.63
2023-04-10T04:08:59.418Z,99735.84
2023-04-10T04:11:26.029Z,99729.91
2023-04-10T04:13:53.018Z,99737.03
2023-04-10T04:16:19.901Z,99738.94
2023-04-10T04:18:46.515Z,99736.63
2023-04-10T04:21:13.216Z,99731.41
2023-04-10T04:23:39.993Z,99730.59
2023-04-10T04:26:06.971Z,99736.78
2023-04-10T04:28:33.610Z,99737.69
2023-04-10T04:31:01.015Z,99737.72
2023-04-10T04:33:27.667Z,99741.81
2023-04-10T04:35:54.327Z,99741.44
2023-04-10T04:38:21.116Z,99740.63
2023-04-10T04:40:47.797Z,99733.94
2023-04-10T04:43:14.381Z,99737.53
2023-04-10T04:45:41.044Z,99734.13
2023-04-10T04:48:07.714Z,99731.53
2023-04-10T04:50:34.692Z,99735.94
2023-04-10T04:53:01.414Z,99748.16
2023-04-10T04:55:28.085Z,99729.84
2023-04-10T04:57:54.741Z,99734.22
2023-04-10T05:00:21.494Z,99736.88
2023-04-10T05:02:48.271Z,99735.16
2023-04-10T05:05:15.923Z,99740.19
2023-04-10T05:07:42.545Z,99736.53
2023-04-10T05:10:09.296Z,99732.78
2023-04-10T05:12:36.322Z,99737.03
2023-04-10T05:15:03.562Z,99735.19
2023-04-10T05:17:30.357Z,99737.81
2023-04-10T05:19:57.050Z,99740.34
2023-04-10T05:22:23.638Z,99738.41
2023-04-10T05:24:50.430Z,99742.59
2023-04-10T05:27:17.823Z,99738.91
2023-04-10T05:29:44.463Z,99749.94
2023-04-10T05:32:11.084Z,99742.81
2023-04-10T05:34:37.751Z,99753.25
2023-04-10T05:37:04.337Z,99740.88
2023-04-10T05:39:31.073Z,99738.97
2023-04-10T05:41:58.344Z,99738.91
2023-04-10T05:44:24.933Z,99750.94
2023-04-10T05:46:51.680Z,99749.94
2023-04-10T05:49:18.386Z,99746.31
2023-04-10T05:51:45.038Z,99747.03
2023-04-10T05:54:11.681Z,99750.31
2023-04-10T05:56:38.428Z,99752.75
2023-04-10T05:59:05.123Z,99753.44
2023-04-10T06:01:31.753Z,99752.38
2023-04-10T06:03:58.502Z,99752.13
2023-04-10T06:06:26.334Z,99752.91
2023-04-10T06:08:53.508Z,99752.66
2023-04-10T06:11:21.201Z,99741.97
2023-04-10T06:13:47.897Z,99742.56
2023-04-10T06:16:15.623Z,99739.63
2023-04-10T06:18:42.617Z,99740.09
2023-04-10T06:21:09.613Z,99733.63
2023-04-10T06:23:37.314Z,99733.22
2023-04-10T06:26:04.154Z,99730.97
2023-04-10T06:28:30.946Z,99725.25
2023-04-10T06:30:57.776Z,99721.44
2023-04-10T06:33:26.350Z,99726.41
2023-04-10T06:35:53.140Z,99723.44
2023-04-10T06:38:19.907Z,99720.50
2023-04-10T06:40:46.763Z,99715.66
2023-04-10T06:43:13.475Z,99717.09
2023-04-10T06:45:40.484Z,99708.00
2023-04-10T06:48:07.190Z,99716.25
2023-04-10T06:50:33.886Z,99716.47
2023-04-10T06:53:00.741Z,99714.25
2023-04-10T06:55:27.404Z,99710.00
2023-04-10T06:57:56.085Z,99712.66
2023-04-10T07:00:23.734Z,99709.09
2023-04-10T07:02:50.475Z,99708.22
2023-04-10T07:05:17.735Z,99701.13
2023-04-10T07:07:44.482Z,99705.22
2023-04-10T07:10:11.304Z,99696.03
2023-04-10T07:12:37.856Z,99699.81
2023-04-10T07:15:05.068Z,99690.88
2023-04-10T07:17:31.678Z,99688.50
2023-04-10T07:19:58.375Z,99691.88
2023-04-10T07:22:25.022Z,99691.09
2023-04-10T07:24:51.643Z,99680.53
2023-04-10T07:27:18.393Z,99675.78
2023-04-10T07:29:44.998Z,99673.25
2023-04-10T07:32:11.734Z,99673.28
2023-04-10T07:34:38.446Z,99674.25
2023-04-10T07:37:05.356Z,99670.22
2023-04-10T07:39:32.018Z,99664.72
2023-04-10T07:41:58.702Z,99653.41
2023-04-10T07:44:26.713Z,99662.94
2023-04-10T07:46:53.933Z,99657.69
2023-04-10T07:49:20.680Z,99660.34
2023-04-10T07:51:47.296Z,99655.91
2023-04-10T07:54:13.909Z,99660.69
2023-04-10T07:56:40.519Z,99652.53
2023-04-10T07:59:07.227Z,99646.72
2023-04-10T08:01:34.128Z,99639.94
2023-04-10T08:04:02.881Z,99625.81
2023-04-10T08:06:32.382Z,99625.03
2023-04-10T08:08:59.036Z,99624.09
2023-04-10T08:11:28.489Z,99621.75
2023-04-10T08:14:01.568Z,99622.81
2023-04-10T08:16:30.390Z,99621.44
2023-04-10T08:18:58.153Z,99611.66
2023-04-10T08:21:29.240Z,99609.81
2023-04-10T08:23:57.706Z,99602.44
2023-04-10T08:26:26.208Z,99604.75
2023-04-10T08:28:54.456Z,99601.97
2023-04-10T08:31:23.208Z,99603.66
2023-04-10T08:33:49.962Z,99595.72
2023-04-10T08:36:19.633Z,99589.44
2023-04-10T08:38:47.827Z,99589.09
2023-04-10T08:41:16.232Z,99580.09
2023-04-10T08:43:43.895Z,99574.78
2023-04-10T08:46:11.202Z,99576.84
2023-04-10T08:48:52.663Z,99565.63
2023-04-10T08:51:26.214Z,99556.44
2023-04-10T08:53:57.032Z,99567.03
2023-04-10T08:56:24.755Z,99549.41
2023-04-10T08:58:52.100Z,99554.97
2023-04-10T09:01:21.375Z,99556.63
2023-04-10T09:03:48.838Z,99541.56
2023-04-10T09:06:15.719Z,99547.53
2023-04-10T09:08:42.337Z,99546.00
2023-04-10T09:11:09.080Z,99544.59
2023-04-10T09:13:41.410Z,99541.25
2023-04-10T09:16:09.862Z,99534.56
2023-04-10T09:18:51.330Z,99526.53
2023-04-10T09:21:22.102Z,99528.63
2023-04-10T09:23:59.534Z,99527.84
2023-04-10T09:26:31.711Z,99523.31
2023-04-10T09:29:06.457Z,99520.50
2023-04-10T09:31:35.409Z,99520.50
2023-04-10T09:34:09.109Z,99516.63
2023-04-10T09:36:37.352Z,99505.25
2023-04-10T09:39:08.325Z,99495.69
2023-04-10T09:41:35.109Z,99505.13
2023-04-10T09:44:10.674Z,99501.84
2023-04-10T09:46:37.792Z,99496.19
2023-04-10T09:49:07.702Z,99492.97
2023-04-10T09:51:36.020Z,99486.94
2023-04-10T09:54:04.297Z,99483.59
2023-04-10T09:56:31.432Z,99480.25
2023-04-10T09:59:00.395Z,99476.50
2023-04-10T10:01:34.575Z,99466.50
2023-04-10T10:04:03.853Z,99466.38
2023-04-10T10:06:34.769Z,99466.53
2023-04-10T10:09:05.444Z,99457.84
2023-04-10T10:11:35.852Z,99455.31
2023-04-10T10:14:07.643Z,99448.88
2023-04-10T10:16:46.855Z,99442.28
2023-04-10T10:19:22.259Z,99433.44
2023-04-10T10:21:49.461Z,99430.19
2023-04-10T10:24:17.186Z,99434.81
2023-04-10T10:26:45.417Z,99424.00
2023-04-10T10:29:15.076Z,99433.69
2023-04-10T10:31:42.861Z,99424.69
2023-04-10T10:34:09.830Z,99425.00
2023-04-10T10:36:37.274Z,99402.09
2023-04-10T10:39:11.559Z,99395.06
2023-04-10T10:41:49.698Z,99394.28
2023-04-10T10:44:57.582Z,99388.03
2023-04-10T10:47:29.118Z,99388.75
2023-04-10T10:50:03.555Z,99376.06
2023-04-10T10:52:45.809Z,99365.03
2023-04-10T10:55:24.809Z,99368.81
2023-04-10T10:57:55.306Z,99359.50
2023-04-10T11:00:24.515Z,99359.78
2023-04-10T11:03:09.380Z,99351.72
2023-04-10T11:05:55.391Z,99341.22
2023-04-10T11:08:48.136Z,99347.63
2023-04-10T11:11:23.634Z,99354.44
2023-04-10T11:13:53.110Z,99358.03
2023-04-10T11:16:20.494Z,99341.53
2023-04-10T11:18:59.403Z,99331.94
2023-04-10T11:21:36.260Z,99347.28
2023-04-10T11:24:04.639Z,99334.88
2023-04-10T11:26:42.890Z,99328.81
2023-04-10T11:29:18.721Z,99336.47
2023-04-10T11:31:56.649Z,99332.53
2023-04-10T11:34:23.737Z,99316.91
2023-04-10T11:36:50.673Z,99311.41
2023-04-10T11:39:19.137Z,99318.50
2023-04-10T11:41:53.552Z,99313.03
2023-04-10T11:44:26.420Z,99303.31
2023-04-10T11:46:53.942Z,99302.31
2023-04-10T11:49:22.779Z,99287.19
2023-04-10T11:51:51.167Z,99280.88
2023-04-10T11:54:19.848Z,99273.91
2023-04-10T11:56:57.114Z,99259.84
2023-04-10T11:59:24.689Z,99265.22
2023-04-10T12:01:54.367Z,99261.63
2023-04-10T12:04:22.832Z,99251.41
2023-04-10T12:06:52.079Z,99246.28
2023-04-10T12:09:21.276Z,99248.63
2023-04-10T12:11:53.080Z,99237.66
2023-04-10T12:14:24.068Z,99238.59
2023-04-10T12:16:51.694Z,99224.59
2023-04-10T12:19:19.306Z,99209.84
2023-04-10T12:21:46.540Z,99214.34
2023-04-10T12:24:13.358Z,99217.28
2023-04-10T12:26:48.378Z,99201.84
2023-04-10T12:29:14.972Z,99201.28
2023-04-10T12:31:41.768Z,99191.47
2023-04-10T12:34:11.174Z,99189.13
2023-04-10T12:36:38.177Z,99186.91
2023-04-10T12:39:05.728Z,99173.81
2023-04-10T12:41:34.372Z,99177.41
2023-04-10T12:44:12.913Z,99176.09
2023-04-10T12:46:41.450Z,99169.28
2023-04-10T12:49:18.475Z,99162.88
2023-04-10T12:51:50.586Z,99160.50
2023-04-10T12:54:46.745Z,99159.63
2023-04-10T12:57:27.201Z,99151.22
2023-04-10T12:59:53.796Z,99147.25
2023-04-10T13:02:21.349Z,99146.59
2023-04-10T13:04:48.149Z,99148.34
2023-04-10T13:07:14.767Z,99143.63
2023-04-10T13:09:41.398Z,99142.13
2023-04-10T13:12:08.091Z,99138.97
2023-04-10T13:14:34.706Z,99133.38
2023-04-10T13:17:01.303Z,99141.31
2023-04-10T13:19:27.906Z,99126.94
2023-04-10T13:21:54.490Z,99123.00
2023-04-10T13:24:21.878Z,99130.91
2023-04-10T13:26:48.500Z,99121.81
2023-04-10T13:29:15.116Z,99112.22
2023-04-10T13:31:41.770Z,99117.44
2023-04-10T13:34:08.472Z,99127.28
2023-04-10T13:36:35.173Z,99119.44
2023-04-10T13:39:01.828Z,99115.34
2023-04-10T13:41:28.487Z,99117.69
2023-04-10T13:43:55.179Z,99121.22
2023-04-10T13:46:21.975Z,99115.69
2023-04-10T13:48:48.666Z,99109.69
2023-04-10T13:51:15.391Z,99107.81
2023-04-10T13:53:42.037Z,99106.81
2023-04-10T13:56:09.196Z,99093.69
2023-04-10T13:58:36.013Z,99089.91
2023-04-10T14:01:02.728Z,99091.44
2023-04-10T14:03:29.568Z,99104.50
2023-04-10T14:05:56.331Z,99092.56
2023-04-10T14:08:24.270Z,99092.25
2023-04-10T14:10:51.489Z,99079.50
2023-04-10T14:13:19.053Z,99085.56
2023-04-10T14:15:46.172Z,99083.03
2023-04-10T14:18:12.847Z,99076.53
2023-04-10T14:20:42.345Z,99072.84
2023-04-10T14:23:09.552Z,99074.00
2023-04-10T14:25:36.197Z,99063.63
2023-04-10T14:28:02.949Z,99059.19
2023-04-10T14:30:31.045Z,99044.75
2023-04-10T14:32:57.983Z,99040.59
2023-04-10T14:35:24.909Z,99036.22
2023-04-10T14:37:51.597Z,99025.63
2023-04-10T14:40:18.204Z,99022.56
2023-04-10T14:42:45.908Z,99015.56
2023-04-10T14:45:12.546Z,99020.00
2023-04-10T14:47:39.297Z,99017.34
2023-04-10T14:50:06.766Z,99010.28
2023-04-10T14:52:33.517Z,99000.13
2023-04-10T14:55:00.131Z,98989.06
2023-04-10T14:57:26.759Z,98991.09
2023-04-10T14:59:53.348Z,98991.38
2023-04-10T15:02:20.130Z,98988.41
2023-04-10T15:04:47.043Z,98990.44
2023-04-10T15:07:14.246Z,98981.28
2023-04-10T15:09:41.001Z,98982.50
2023-04-10T15:12:07.803Z,98975.88
2023-04-10T15:14:34.554Z,98977.19
2023-04-10T15:17:01.216Z,98981.91
2023-04-10T15:19:28.032Z,98975.63
2023-04-10T15:21:55.727Z,98974.56
2023-04-10T15:24:22.520Z,98966.88
2023-04-10T15:26:49.110Z,98969.66
2023-04-10T15:29:15.980Z,98972.97
2023-04-10T15:31:42.637Z,98962.19
2023-04-10T15:34:09.327Z,98954.78
2023-04-10T15:36:36.058Z,98947.63
2023-04-10T15:39:06.386Z,98943.94
2023-04-10T15:41:33.264Z,98938.91
2023-04-10T15:44:00.203Z,98922.34
2023-04-10T15:46:27.183Z,98922.16
2023-04-10T15:48:53.934Z,98920.06
2023-04-10T15:51:21.424Z,98915.44
2023-04-10T15:53:48.044Z,98907.53
2023-04-10T15:56:16.117Z,98909.50
2023-04-10T15:58:42.796Z,98896.50
2023-04-10T16:01:09.418Z,98895.66
2023-04-10T16:03:36.398Z,98884.09
2023-04-10T16:06:03.262Z,98876.06
2023-04-10T16:08:30.060Z,98872.75
2023-04-10T16:10:56.733Z,98864.72
2023-04-10T16:13:23.364Z,98861.94
2023-04-10T16:15:50.517Z,98852.59
2023-04-10T16:18:17.295Z,98847.59
2023-04-10T16:20:44.004Z,98850.63
2023-04-10T16:23:10.633Z,98851.59
2023-04-10T16:25:37.264Z,98834.88
2023-04-10T16:28:06.552Z,98836.72
2023-04-10T16:30:33.760Z,98833.28
2023-04-10T16:33:01.018Z,98832.78
2023-04-10T16:35:27.831Z,98822.97
2023-04-10T16:37:54.640Z,98825.47
2023-04-10T16:40:21.807Z,98813.94
2023-04-10T16:42:48.410Z,98823.78
2023-04-10T16:45:15.524Z,98822.78
2023-04-10T16:47:44.628Z,98814.59
2023-04-10T16:50:11.542Z,98819.44
2023-04-10T16:52:38.267Z,98810.53
2023-04-10T16:55:05.370Z,98810.72
2023-04-10T16:57:33.577Z,98816.72
2023-04-10T17:00:00.485Z,98812.25
2023-04-10T17:02:28.416Z,98807.22
2023-04-10T17:04:55.968Z,98793.50
2023-04-10T17:07:23.744Z,98793.03
2023-04-10T17:09:50.681Z,98781.97
2023-04-10T17:12:17.438Z,98778.25
2023-04-10T17:14:44.536Z,98770.84
2023-04-10T17:17:11.415Z,98765.84
2023-04-10T17:19:38.636Z,98766.78
2023-04-10T17:22:06.241Z,98759.63
2023-04-10T17:24:32.836Z,98759.75
2023-04-10T17:27:01.025Z,98764.38
2023-04-10T17:29:27.617Z,98761.03
2023-04-10T17:31:54.215Z,98761.47
2023-04-10T17:34:20.862Z,98771.13
2023-04-10T17:36:49.312Z,98756.41
2023-04-10T17:39:16.016Z,98750.53
2023-04-10T17:41:42.621Z,98750.22
2023-04-10T17:44:10.573Z,98745.19
2023-04-10T17:46:37.223Z,98742.66
2023-04-10T17:49:04.391Z,98733.97
2023-04-10T17:51:31.746Z,98728.25
2023-04-10T17:53:58.768Z,98728.91
2023-04-10T17:56:26.221Z,98727.22
2023-04-10T17:58:54.766Z,98737.88
2023-04-10T18:58:59.090Z,98649.88
2023-04-10T19:01:26.078Z,98643.56
2023-04-10T19:03:54.990Z,98645.50
2023-04-10T19:06:24.747Z,98653.09
2023-04-10T19:08:51.492Z,98646.50
2023-04-10T19:11:18.714Z,98650.56
2023-04-10T19:13:45.596Z,98644.69
2023-04-10T19:16:19.324Z,98645.25
2023-04-10T19:18:47.427Z,98631.22
2023-04-10T19:21:14.364Z,98630.53
2023-04-10T19:23:41.363Z,98627.19
2023-04-10T19:26:09.785Z,98620.78
2023-04-10T19:28:36.505Z,98604.75
2023-04-10T19:31:03.424Z,98619.13
2023-04-10T19:33:30.368Z,98618.88
2023-04-10T19:35:58.240Z,98618.31
2023-04-10T19:38:25.021Z,98615.84
2023-04-10T19:40:51.780Z,98615.53
2023-04-10T19:43:18.415Z,98616.16
2023-04-10T19:45:45.300Z,98615.84
2023-04-10T19:48:12.306Z,98613.72
2023-04-10T19:50:38.900Z,98598.19
2023-04-10T19:53:05.734Z,98589.41
2023-04-10T19:55:32.383Z,98578.28
2023-04-10T19:57:59.031Z,98577.47
2023-04-10T20:00:25.680Z,98584.63
2023-04-10T20:02:52.768Z,98590.78
2023-04-10T20:05:19.851Z,98584.84
2023-04-10T20:07:46.857Z,98583.84
2023-04-10T20:10:13.477Z,98573.09
2023-04-10T20:12:40.110Z,98564.88
2023-04-10T20:15:07.471Z,98571.16
2023-04-10T20:17:34.308Z,98567.25
2023-04-10T20:20:00.895Z,98561.13
2023-04-10T20:22:27.517Z,98549.09
2023-04-10T20:24:54.241Z,98567.88
2023-04-10T20:27:20.916Z,98547.75
2023-04-10T20:29:47.573Z,98552.31
2023-04-10T20:32:14.188Z,98549.44
2023-04-10T20:34:40.852Z,98552.25
2023-04-10T20:37:07.531Z,98549.72
2023-04-10T20:39:34.198Z,98544.41
2023-04-10T20:42:01.391Z,98537.41
2023-04-10T20:44:28.155Z,98524.91
2023-04-10T20:46:54.856Z,98513.44
2023-04-10T20:49:22.806Z,98511.41
2023-04-10T20:51:49.473Z,98513.41
2023-04-10T20:54:19.029Z,98505.03
2023-04-10T20:56:46.614Z,98505.88
2023-04-10T20:59:13.440Z,98506.34
2023-04-10T21:01:40.346Z,98494.56
2023-04-10T21:04:07.206Z,98492.19
2023-04-10T21:06:33.957Z,98497.22
2023-04-10T21:09:00.788Z,98498.97
2023-04-10T21:11:27.647Z,98495.94
2023-04-10T21:13:54.506Z,98493.81
2023-04-10T21:16:21.261Z,98501.28
2023-04-10T21:18:48.019Z,98508.56
2023-04-10T21:21:14.915Z,98494.41
2023-04-10T21:23:41.537Z,98490.88
2023-04-10T21:26:08.315Z,98499.38
2023-04-10T21:28:34.936Z,98492.50
2023-04-10T21:31:01.683Z,98487.75
2023-04-10T21:33:28.373Z,98490.19
2023-04-10T21:35:55.649Z,98468.91
2023-04-10T21:38:23.501Z,98464.50
2023-04-10T21:40:54.098Z,98473.16
2023-04-10T21:43:21.466Z,98458.38
2023-04-10T21:45:48.503Z,98446.34
2023-04-10T21:48:15.415Z,98450.81
2023-04-10T21:50:42.390Z,98433.53
2023-04-10T21:53:09.236Z,98437.47
2023-04-10T21:55:35.946Z,98434.97
2023-04-10T21:58:02.632Z,98439.97
2023-04-10T22:00:29.414Z,98447.56
2023-04-10T22:02:56.215Z,98445.84
2023-04-10T22:05:24.462Z,98446.72
2023-04-10T22:07:52.161Z,98443.69
2023-04-10T22:10:19.011Z,98442.16
2023-04-10T22:12:48.588Z,98420.38
2023-04-10T22:15:15.628Z,98425.78
2023-04-10T22:17:42.291Z,98422.72
2023-04-10T22:20:09.426Z,98403.13
2023-04-10T22:22:36.051Z,98396.75
2023-04-10T22:25:02.892Z,98377.72
2023-04-10T22:27:29.575Z,98362.91
2023-04-10T22:30:03.197Z,98359.56
2023-04-10T22:32:31.183Z,98366.88
2023-04-10T22:34:59.391Z,98374.97
2023-04-10T22:37:26.650Z,98363.22
2023-04-10T22:39:53.529Z,98367.16
2023-04-10T22:42:20.224Z,98364.88
2023-04-10T22:44:46.833Z,98370.38
2023-04-10T22:47:13.410Z,98356.91
2023-04-10T22:49:40.119Z,98347.56
2023-04-10T22:52:07.779Z,98342.72
2023-04-10T22:54:34.399Z,98327.41
2023-04-10T22:57:01.003Z,98324.59
2023-04-10T22:59:27.682Z,98327.25
2023-04-10T23:01:54.396Z,98337.03
2023-04-10T23:04:21.399Z,98334.69
2023-04-10T23:06:48.164Z,98333.75
2023-04-10T23:09:14.786Z,98325.72
2023-04-10T23:11:41.489Z,98323.06
2023-04-10T23:14:08.131Z,98324.94
2023-04-10T23:16:34.837Z,98340.81
2023-04-10T23:19:01.600Z,98347.47
2023-04-10T23:21:28.352Z,98336.53
2023-04-10T23:23:55.010Z,98346.34
2023-04-10T23:26:21.624Z,98339.97
2023-04-10T23:28:48.441Z,98326.28
2023-04-10T23:31:15.839Z,98337.44
2023-04-10T23:33:42.473Z,98373.94
2023-04-10T23:36:09.482Z,98371.72
2023-04-10T23:38:36.153Z,98370.63
2023-04-10T23:41:03.132Z,98384.66
2023-04-10T23:43:29.877Z,98374.94
2023-04-10T23:45:56.481Z,98369.66
2023-04-10T23:48:23.170Z,98356.44
2023-04-10T23:50:49.820Z,98350.75
2023-04-10T23:53:16.701Z,98353.53
2023-04-10T23:55:43.504Z,98357.84
2023-04-10T23:58:10.584Z,98360.09
